createdAt,value
2018-06-23T00:00:53.102Z,14.77
2018-06-23T00:01:53.057Z,14.74
2018-06-23T00:02:53.015Z,14.73
2018-06-23T00:03:52.972Z,14.66
2018-06-23T00:04:52.930Z,14.78
2018-06-23T00:05:52.887Z,14.81
2018-06-23T00:06:52.846Z,14.86
2018-06-23T00:07:52.802Z,14.79
2018-06-23T00:08:52.759Z,14.77
2018-06-23T00:09:52.730Z,14.77
2018-06-23T00:10:52.674Z,14.77
2018-06-23T00:11:52.633Z,14.79
2018-06-23T00:12:52.591Z,14.78
2018-06-23T00:13:52.551Z,14.70
2018-06-23T00:14:52.507Z,14.67
2018-06-23T00:15:52.460Z,14.68
2018-06-23T00:16:52.417Z,14.70
2018-06-23T00:17:52.375Z,14.63
2018-06-23T00:18:52.334Z,14.71
2018-06-23T00:19:52.288Z,14.62
2018-06-23T00:20:52.248Z,14.66
2018-06-23T00:21:52.205Z,14.68
2018-06-23T00:22:52.164Z,14.67
2018-06-23T00:23:52.120Z,14.63
2018-06-23T00:24:52.076Z,14.61
2018-06-23T00:25:52.037Z,14.63
2018-06-23T00:26:51.991Z,14.66
2018-06-23T00:27:51.949Z,14.61
2018-06-23T00:28:51.918Z,14.56
2018-06-23T00:29:51.867Z,14.62
2018-06-23T00:30:51.823Z,14.63
2018-06-23T00:31:51.779Z,14.58
2018-06-23T00:32:51.736Z,14.51
2018-06-23T00:33:51.691Z,14.70
2018-06-23T00:34:51.653Z,14.58
2018-06-23T00:35:51.608Z,14.63
2018-06-23T00:36:51.566Z,14.66
2018-06-23T00:37:51.523Z,14.55
2018-06-23T00:39:51.443Z,14.52
2018-06-23T00:40:51.393Z,14.40
2018-06-23T00:41:51.357Z,14.41
2018-06-23T00:42:51.310Z,14.44
2018-06-23T00:43:51.264Z,14.45
2018-06-23T00:44:51.221Z,14.55
2018-06-23T00:45:51.179Z,14.49
2018-06-23T00:46:51.139Z,14.45
2018-06-23T00:47:51.096Z,14.51
2018-06-23T00:48:51.049Z,14.43
2018-06-23T00:49:51.007Z,14.40
2018-06-23T00:50:50.969Z,14.33
2018-06-23T00:51:50.921Z,14.31
2018-06-23T00:52:50.880Z,14.30
2018-06-23T00:53:50.835Z,14.26
2018-06-23T00:54:50.790Z,14.26
2018-06-23T00:55:50.748Z,14.19
2018-06-23T00:56:50.709Z,14.22
2018-06-23T00:57:50.663Z,14.22
2018-06-23T00:58:50.622Z,14.13
2018-06-23T00:59:50.581Z,14.08
2018-06-23T01:00:50.540Z,14.03
2018-06-23T01:01:50.493Z,14.08
2018-06-23T01:02:50.448Z,14.05
2018-06-23T01:03:50.410Z,14.01
2018-06-23T01:04:50.365Z,14.03
2018-06-23T01:05:50.321Z,13.95
2018-06-23T01:06:50.275Z,13.95
2018-06-23T01:07:50.241Z,13.97
2018-06-23T01:08:50.219Z,13.93
2018-06-23T01:09:50.152Z,13.80
2018-06-23T01:10:50.109Z,13.83
2018-06-23T01:11:50.062Z,13.86
2018-06-23T01:12:50.020Z,13.82
2018-06-23T01:13:49.975Z,13.82
2018-06-23T01:14:49.935Z,13.75
2018-06-23T01:15:49.890Z,13.73
2018-06-23T01:16:49.851Z,13.73
2018-06-23T01:17:49.803Z,13.68
2018-06-23T01:18:49.762Z,13.68
2018-06-23T01:19:49.720Z,13.62
2018-06-23T01:20:49.674Z,13.70
2018-06-23T01:21:49.632Z,13.62
2018-06-23T01:22:49.587Z,13.52
2018-06-23T01:23:49.546Z,13.58
2018-06-23T01:24:49.502Z,13.42
2018-06-23T01:25:49.459Z,13.47
2018-06-23T01:26:49.415Z,13.50
2018-06-23T01:27:49.372Z,13.42
2018-06-23T01:28:49.335Z,13.42
2018-06-23T01:29:49.406Z,13.45
2018-06-23T01:30:49.292Z,13.43
2018-06-23T01:31:49.288Z,13.45
2018-06-23T01:32:49.179Z,13.39
2018-06-23T01:33:49.170Z,13.36
2018-06-23T01:34:49.165Z,13.37
2018-06-23T01:35:49.046Z,13.30
2018-06-23T01:36:49.044Z,13.31
2018-06-23T01:37:49.042Z,13.27
2018-06-23T01:38:48.930Z,13.26
2018-06-23T01:39:48.925Z,13.16
2018-06-23T01:40:48.928Z,13.24
2018-06-23T01:41:48.801Z,13.13
2018-06-23T01:42:48.802Z,13.21
2018-06-23T01:43:48.682Z,13.20
2018-06-23T01:44:48.682Z,13.26
2018-06-23T01:45:48.681Z,13.17
2018-06-23T01:46:48.561Z,13.11
2018-06-23T01:47:48.562Z,13.16
2018-06-23T01:48:48.559Z,13.12
2018-06-23T01:49:48.441Z,13.13
2018-06-23T01:50:48.442Z,13.20
2018-06-23T01:51:48.444Z,13.19
2018-06-23T01:52:48.320Z,13.13
2018-06-23T01:53:48.318Z,13.16
2018-06-23T01:54:48.279Z,13.03
2018-06-23T01:55:48.201Z,13.02
2018-06-23T01:56:48.198Z,13.05
2018-06-23T01:57:48.077Z,13.09
2018-06-23T01:58:48.084Z,13.05
2018-06-23T01:59:48.082Z,13.03
2018-06-23T02:00:47.959Z,13.05
2018-06-23T02:01:47.957Z,13.05
2018-06-23T02:02:47.958Z,13.12
2018-06-23T02:03:47.838Z,13.13
2018-06-23T02:04:47.839Z,13.05
2018-06-23T02:05:47.836Z,12.99
2018-06-23T02:06:47.716Z,13.01
2018-06-23T02:07:47.717Z,13.05
2018-06-23T02:08:47.599Z,13.02
2018-06-23T02:09:47.599Z,13.06
2018-06-23T02:10:47.600Z,12.95
2018-06-23T02:11:47.476Z,13.01
2018-06-23T02:12:47.475Z,13.05
2018-06-23T02:13:47.478Z,13.02
2018-06-23T02:14:47.356Z,13.03
2018-06-23T02:15:47.356Z,12.99
2018-06-23T02:16:47.354Z,13.05
2018-06-23T02:17:47.233Z,12.99
2018-06-23T02:18:47.234Z,13.03
2018-06-23T02:19:47.237Z,13.03
2018-06-23T02:20:47.112Z,13.11
2018-06-23T02:21:47.116Z,12.90
2018-06-23T02:22:46.998Z,12.87
2018-06-23T02:23:46.993Z,12.93
2018-06-23T02:24:46.992Z,12.86
2018-06-23T02:25:46.873Z,12.94
2018-06-23T02:26:46.875Z,12.93
2018-06-23T02:27:46.871Z,12.90
2018-06-23T02:28:46.758Z,12.87
2018-06-23T02:29:46.751Z,12.88
2018-06-23T02:30:46.753Z,12.80
2018-06-23T02:31:46.640Z,12.87
2018-06-23T02:32:46.640Z,12.94
2018-06-23T02:33:46.512Z,12.83
2018-06-23T02:34:46.513Z,12.86
2018-06-23T02:35:46.511Z,12.84
2018-06-23T02:36:46.392Z,12.84
2018-06-23T02:37:46.389Z,12.73
2018-06-23T02:38:46.390Z,12.83
2018-06-23T02:39:46.269Z,12.76
2018-06-23T02:40:46.269Z,12.72
2018-06-23T02:41:46.271Z,12.76
2018-06-23T02:42:46.151Z,12.72
2018-06-23T02:43:46.148Z,12.68
2018-06-23T02:44:46.151Z,12.66
2018-06-23T02:45:46.030Z,12.68
2018-06-23T02:46:46.031Z,12.62
2018-06-23T02:47:45.908Z,12.65
2018-06-23T02:48:45.910Z,12.62
2018-06-23T02:49:45.909Z,12.58
2018-06-23T02:50:45.796Z,12.61
2018-06-23T02:51:45.790Z,12.61
2018-06-23T02:52:45.787Z,12.53
2018-06-23T02:53:45.666Z,12.68
2018-06-23T02:54:45.665Z,12.61
2018-06-23T02:55:45.667Z,12.53
2018-06-23T02:56:45.545Z,12.50
2018-06-23T02:57:45.545Z,12.40
2018-06-23T02:58:45.425Z,12.45
2018-06-23T02:59:45.426Z,12.45
2018-06-23T03:00:45.428Z,12.45
2018-06-23T03:01:45.304Z,12.45
2018-06-23T03:02:45.311Z,12.39
2018-06-23T03:03:45.304Z,12.39
2018-06-23T03:04:45.186Z,12.40
2018-06-23T03:05:45.190Z,12.36
2018-06-23T03:06:45.186Z,12.39
2018-06-23T03:07:45.068Z,12.32
2018-06-23T03:08:45.063Z,12.30
2018-06-23T03:09:44.945Z,12.30
2018-06-23T03:10:44.945Z,12.32
2018-06-23T03:11:44.943Z,12.29
2018-06-23T03:12:44.836Z,12.32
2018-06-23T03:13:44.826Z,12.30
2018-06-23T03:14:44.823Z,12.30
2018-06-23T03:15:44.703Z,12.30
2018-06-23T03:16:44.703Z,12.25
2018-06-23T03:17:44.702Z,12.32
2018-06-23T03:18:44.580Z,12.26
2018-06-23T03:19:44.584Z,12.35
2018-06-23T03:20:44.579Z,12.29
2018-06-23T03:21:44.461Z,12.30
2018-06-23T03:22:44.461Z,12.33
2018-06-23T03:23:44.340Z,12.28
2018-06-23T03:24:44.340Z,12.29
2018-06-23T03:25:44.339Z,12.28
2018-06-23T03:26:44.223Z,12.35
2018-06-23T03:27:44.219Z,12.30
2018-06-23T03:28:44.218Z,12.25
2018-06-23T03:29:44.098Z,12.32
2018-06-23T03:30:44.099Z,12.29
2018-06-23T03:31:44.056Z,12.25
2018-06-23T03:32:43.978Z,12.28
2018-06-23T03:33:43.977Z,12.29
2018-06-23T03:34:43.865Z,12.21
2018-06-23T03:35:43.860Z,12.26
2018-06-23T03:36:43.857Z,12.28
2018-06-23T03:37:43.741Z,12.26
2018-06-23T03:38:43.736Z,12.25
2018-06-23T03:39:43.741Z,12.30
2018-06-23T03:40:43.618Z,12.21
2018-06-23T03:41:43.615Z,12.29
2018-06-23T03:42:43.577Z,12.30
2018-06-23T03:43:43.552Z,12.18
2018-06-23T03:44:43.495Z,12.29
2018-06-23T03:45:43.380Z,12.23
2018-06-23T03:46:43.374Z,12.18
2018-06-23T03:47:43.376Z,12.20
2018-06-23T03:48:43.258Z,12.18
2018-06-23T03:49:43.256Z,12.17
2018-06-23T03:50:43.256Z,12.12
2018-06-23T03:51:43.135Z,12.18
2018-06-23T03:52:43.135Z,12.15
2018-06-23T03:53:43.100Z,12.11
2018-06-23T03:54:43.016Z,12.17
2018-06-23T03:55:43.015Z,12.11
2018-06-23T03:56:42.892Z,12.14
2018-06-23T03:57:42.892Z,12.10
2018-06-23T03:58:42.892Z,12.10
2018-06-23T03:59:42.772Z,12.07
2018-06-23T04:00:42.776Z,12.07
2018-06-23T04:01:42.776Z,12.00
2018-06-23T04:02:42.651Z,12.02
2018-06-23T04:03:42.656Z,12.12
2018-06-23T04:04:42.647Z,12.10
2018-06-23T04:05:42.533Z,12.07
2018-06-23T04:06:42.532Z,12.10
2018-06-23T04:07:42.412Z,12.03
2018-06-23T04:08:42.409Z,12.07
2018-06-23T04:09:42.410Z,12.03
2018-06-23T04:10:42.291Z,12.03
2018-06-23T04:11:42.291Z,12.17
2018-06-23T04:12:42.294Z,12.18
2018-06-23T04:13:42.171Z,12.17
2018-06-23T04:14:42.170Z,12.18
2018-06-23T04:15:42.126Z,12.21
2018-06-23T04:16:42.101Z,12.11
2018-06-23T04:17:42.049Z,12.20
2018-06-23T04:18:41.930Z,12.23
2018-06-23T04:19:41.931Z,12.21
2018-06-23T04:20:41.930Z,12.17
2018-06-23T04:21:41.808Z,12.32
2018-06-23T04:22:41.806Z,12.32
2018-06-23T04:23:41.809Z,12.35
2018-06-23T04:24:41.686Z,12.32
2018-06-23T04:25:41.689Z,12.32
2018-06-23T04:26:41.644Z,12.39
2018-06-23T04:27:41.565Z,12.37
2018-06-23T04:28:41.566Z,12.40
2018-06-23T04:29:41.450Z,12.50
2018-06-23T04:30:41.447Z,12.39
2018-06-23T04:31:41.447Z,12.48
2018-06-23T04:32:41.329Z,12.48
2018-06-23T04:33:41.324Z,12.47
2018-06-23T04:34:41.325Z,12.45
2018-06-23T04:35:41.209Z,12.54
2018-06-23T04:36:41.208Z,12.62
2018-06-23T04:37:41.161Z,12.66
2018-06-23T04:38:41.085Z,12.58
2018-06-23T04:39:41.087Z,12.65
2018-06-23T04:40:40.967Z,12.62
2018-06-23T04:41:40.962Z,12.65
2018-06-23T04:42:40.963Z,12.58
2018-06-23T04:43:40.843Z,12.62
2018-06-23T04:44:40.847Z,12.66
2018-06-23T04:45:40.844Z,12.72
2018-06-23T04:46:40.723Z,12.69
2018-06-23T04:47:40.723Z,12.75
2018-06-23T04:48:40.722Z,12.75
2018-06-23T04:49:40.601Z,12.76
2018-06-23T04:50:40.602Z,12.76
2018-06-23T04:51:40.482Z,12.84
2018-06-23T04:52:40.479Z,12.83
2018-06-23T04:53:40.481Z,12.90
2018-06-23T04:54:40.363Z,12.93
2018-06-23T04:55:40.359Z,12.86
2018-06-23T04:56:40.359Z,12.94
2018-06-23T04:57:40.243Z,12.94
2018-06-23T04:58:40.242Z,12.93
2018-06-23T04:59:40.240Z,13.06
2018-06-23T05:00:40.121Z,13.02
2018-06-23T05:01:40.126Z,13.01
2018-06-23T05:02:40.002Z,12.99
2018-06-23T05:03:39.997Z,13.09
2018-06-23T05:04:39.998Z,13.02
2018-06-23T05:05:39.877Z,13.16
2018-06-23T05:06:39.881Z,13.17
2018-06-23T05:07:39.881Z,13.16
2018-06-23T05:08:39.758Z,13.11
2018-06-23T05:09:39.758Z,13.23
2018-06-23T05:10:39.756Z,13.16
2018-06-23T05:11:39.638Z,13.16
2018-06-23T05:12:39.636Z,13.20
2018-06-23T05:13:39.593Z,13.17
2018-06-23T05:14:39.517Z,13.19
2018-06-23T05:15:39.516Z,13.28
2018-06-23T05:16:39.398Z,13.27
2018-06-23T05:17:39.394Z,13.30
2018-06-23T05:18:39.394Z,13.27
2018-06-23T05:19:39.273Z,13.26
2018-06-23T05:20:39.274Z,13.31
2018-06-23T05:21:39.274Z,13.30
2018-06-23T05:22:39.154Z,13.24
2018-06-23T05:23:39.155Z,13.30
2018-06-23T05:24:39.159Z,13.27
2018-06-23T05:25:39.036Z,13.30
2018-06-23T05:26:39.032Z,13.33
2018-06-23T05:27:38.912Z,13.37
2018-06-23T05:28:38.914Z,13.33
2018-06-23T05:29:38.913Z,13.30
2018-06-23T05:30:38.791Z,13.33
2018-06-23T05:31:38.837Z,13.27
2018-06-23T05:32:38.793Z,13.31
2018-06-23T05:33:38.676Z,13.27
2018-06-23T05:34:38.673Z,13.30
2018-06-23T05:35:38.672Z,13.40
2018-06-23T05:36:38.549Z,13.42
2018-06-23T05:37:38.563Z,13.45
2018-06-23T05:38:38.508Z,13.31
2018-06-23T05:39:38.432Z,13.37
2018-06-23T05:40:38.430Z,13.42
2018-06-23T05:41:38.310Z,13.42
2018-06-23T05:42:38.309Z,13.43
2018-06-23T05:43:38.309Z,13.37
2018-06-23T05:44:38.188Z,13.40
2018-06-23T05:45:38.190Z,13.49
2018-06-23T05:46:38.188Z,13.40
2018-06-23T05:47:38.069Z,13.45
2018-06-23T05:48:38.067Z,13.47
2018-06-23T05:49:38.067Z,13.43
2018-06-23T05:50:37.951Z,13.40
2018-06-23T05:51:37.951Z,13.37
2018-06-23T05:52:37.825Z,13.43
2018-06-23T05:53:37.826Z,13.36
2018-06-23T05:54:37.837Z,13.47
2018-06-23T05:55:37.710Z,13.54
2018-06-23T05:56:37.710Z,13.50
2018-06-23T05:57:37.707Z,13.60
2018-06-23T05:58:37.586Z,13.57
2018-06-23T05:59:37.585Z,13.62
2018-06-23T06:00:37.611Z,13.55
2018-06-23T06:01:37.467Z,13.54
2018-06-23T06:02:37.466Z,13.68
2018-06-23T06:03:37.422Z,13.67
2018-06-23T06:04:37.346Z,13.65
2018-06-23T06:05:37.347Z,13.67
2018-06-23T06:06:37.228Z,13.65
2018-06-23T06:07:37.223Z,13.70
2018-06-23T06:08:37.224Z,13.62
2018-06-23T06:09:37.102Z,13.60
2018-06-23T06:10:37.103Z,13.54
2018-06-23T06:11:37.136Z,13.58
2018-06-23T06:12:36.984Z,13.61
2018-06-23T06:13:36.985Z,13.68
2018-06-23T06:14:36.984Z,13.67
2018-06-23T06:15:36.862Z,13.58
2018-06-23T06:16:36.861Z,13.60
2018-06-23T06:17:36.820Z,13.71
2018-06-23T06:18:36.742Z,13.68
2018-06-23T06:19:36.741Z,13.64
2018-06-23T06:20:36.623Z,13.61
2018-06-23T06:21:36.622Z,13.64
2018-06-23T06:22:36.620Z,13.57
2018-06-23T06:23:36.505Z,13.67
2018-06-23T06:24:36.499Z,13.71
2018-06-23T06:25:36.502Z,13.68
2018-06-23T06:26:36.379Z,13.79
2018-06-23T06:27:36.378Z,13.73
2018-06-23T06:28:36.380Z,13.78
2018-06-23T06:29:36.266Z,13.79
2018-06-23T06:30:36.260Z,13.83
2018-06-23T06:31:36.140Z,13.85
2018-06-23T06:32:36.141Z,13.87
2018-06-23T06:33:36.138Z,13.93
2018-06-23T06:34:36.019Z,14.03
2018-06-23T06:35:36.088Z,14.03
2018-06-23T06:36:36.022Z,14.13
2018-06-23T06:37:35.897Z,14.05
2018-06-23T06:38:35.896Z,14.19
2018-06-23T06:39:35.900Z,14.22
2018-06-23T06:40:35.778Z,14.30
2018-06-23T06:41:35.776Z,14.40
2018-06-23T06:42:35.780Z,14.34
2018-06-23T06:43:35.659Z,14.40
2018-06-23T06:44:35.712Z,14.52
2018-06-23T06:45:35.538Z,14.49
2018-06-23T06:46:35.536Z,14.49
2018-06-23T06:47:35.538Z,14.49
2018-06-23T06:48:35.416Z,14.49
2018-06-23T06:49:35.422Z,14.59
2018-06-23T06:50:35.422Z,14.67
2018-06-23T06:51:35.299Z,14.68
2018-06-23T06:52:35.300Z,14.61
2018-06-23T06:53:35.298Z,14.67
2018-06-23T06:54:35.172Z,14.87
2018-06-23T06:55:35.173Z,14.99
2018-06-23T06:56:35.176Z,15.07
2018-06-23T06:57:35.053Z,15.14
2018-06-23T06:58:35.052Z,15.17
2018-06-23T06:59:35.011Z,15.25
2018-06-23T07:00:34.977Z,15.19
2018-06-23T07:01:34.933Z,15.32
2018-06-23T07:02:34.812Z,15.39
2018-06-23T07:03:34.821Z,15.33
2018-06-23T07:04:34.819Z,15.36
2018-06-23T07:05:34.692Z,15.45
2018-06-23T07:06:34.691Z,15.43
2018-06-23T07:07:34.690Z,15.44
2018-06-23T07:08:34.572Z,15.43
2018-06-23T07:09:34.573Z,15.43
2018-06-23T07:10:34.571Z,15.52
2018-06-23T07:11:34.449Z,15.52
2018-06-23T07:12:34.453Z,15.59
2018-06-23T07:13:34.453Z,15.55
2018-06-23T07:14:34.328Z,15.59
2018-06-23T07:15:34.400Z,15.66
2018-06-23T07:16:34.286Z,15.66
2018-06-23T07:17:34.221Z,15.67
2018-06-23T07:18:34.209Z,15.67
2018-06-23T07:19:34.090Z,15.73
2018-06-23T07:20:34.112Z,15.81
2018-06-23T07:21:34.088Z,15.92
2018-06-23T07:22:33.971Z,15.91
2018-06-23T07:23:34.036Z,15.91
2018-06-23T07:24:33.969Z,15.98
2018-06-23T07:25:33.850Z,15.94
2018-06-23T07:26:33.852Z,15.99
2018-06-23T07:27:33.846Z,15.98
2018-06-23T07:28:33.734Z,16.02
2018-06-23T07:29:33.727Z,16.10
2018-06-23T07:30:33.754Z,16.21
2018-06-23T07:31:33.609Z,16.17
2018-06-23T07:32:33.604Z,16.28
2018-06-23T07:33:33.610Z,16.26
2018-06-23T07:34:33.586Z,16.32
2018-06-23T07:35:33.488Z,16.31
2018-06-23T07:36:33.444Z,16.37
2018-06-23T07:37:33.375Z,16.37
2018-06-23T07:38:35.524Z,16.43
2018-06-23T07:39:33.244Z,16.49
2018-06-23T07:40:33.306Z,16.51
2018-06-23T07:41:33.244Z,16.59
2018-06-23T07:42:33.124Z,16.61
2018-06-23T07:43:33.123Z,16.77
2018-06-23T07:44:33.198Z,16.65
2018-06-23T07:45:33.008Z,16.82
2018-06-23T07:46:33.073Z,16.83
2018-06-23T07:47:33.001Z,16.84
2018-06-23T07:48:32.881Z,16.84
2018-06-23T07:49:32.881Z,16.87
2018-06-23T07:50:32.887Z,16.91
2018-06-23T07:51:32.761Z,16.86
2018-06-23T07:52:32.763Z,17.01
2018-06-23T07:53:32.760Z,17.07
2018-06-23T07:54:32.643Z,17.10
2018-06-23T07:55:32.643Z,17.07
2018-06-23T07:56:32.648Z,17.13
2018-06-23T07:57:32.520Z,17.05
2018-06-23T07:58:32.520Z,16.99
2018-06-23T07:59:32.525Z,16.98
2018-06-23T08:00:32.399Z,16.91
2018-06-23T08:01:32.415Z,16.87
2018-06-23T08:02:32.277Z,16.89
2018-06-23T08:03:32.284Z,16.89
2018-06-23T08:04:32.280Z,16.99
2018-06-23T08:05:32.159Z,17.10
2018-06-23T08:06:32.159Z,17.22
2018-06-23T08:07:32.160Z,17.24
2018-06-23T08:08:32.037Z,17.37
2018-06-23T08:09:32.037Z,17.50
2018-06-23T08:10:32.038Z,17.53
2018-06-23T08:11:31.916Z,17.38
2018-06-23T08:12:31.916Z,17.46
2018-06-23T08:13:31.918Z,17.49
2018-06-23T08:14:31.800Z,17.46
2018-06-23T08:15:31.800Z,17.50
2018-06-23T08:16:31.798Z,17.46
2018-06-23T08:17:31.676Z,17.44
2018-06-23T08:18:31.777Z,17.52
2018-06-23T08:19:31.676Z,17.52
2018-06-23T08:20:31.556Z,17.44
2018-06-23T08:21:31.553Z,17.49
2018-06-23T08:22:31.555Z,17.54
2018-06-23T08:23:31.438Z,17.60
2018-06-23T08:24:31.436Z,17.56
2018-06-23T08:25:31.436Z,17.54
2018-06-23T08:26:31.408Z,17.65
2018-06-23T08:27:31.314Z,17.66
2018-06-23T08:28:31.317Z,17.80
2018-06-23T08:29:31.194Z,17.79
2018-06-23T08:30:31.195Z,17.86
2018-06-23T08:31:31.153Z,18.00
2018-06-23T08:32:31.071Z,18.03
2018-06-23T08:33:31.076Z,18.06
2018-06-23T08:34:30.953Z,18.11
2018-06-23T08:35:30.954Z,18.28
2018-06-23T08:36:30.993Z,18.28
2018-06-23T08:37:30.831Z,18.41
2018-06-23T08:38:30.834Z,18.53
2018-06-23T08:39:35.882Z,18.61
2018-06-23T08:40:30.712Z,18.76
2018-06-23T08:41:30.713Z,18.91
2018-06-23T08:42:30.711Z,18.96
2018-06-23T08:43:30.590Z,19.08
2018-06-23T08:44:30.589Z,19.11
2018-06-23T08:45:30.589Z,19.24
2018-06-23T08:46:30.472Z,19.32
2018-06-23T08:47:30.469Z,19.35
2018-06-23T08:48:30.469Z,19.32
2018-06-23T08:49:30.350Z,19.44
2018-06-23T08:50:30.348Z,19.30
2018-06-23T08:51:30.347Z,19.41
2018-06-23T08:52:30.227Z,19.52
2018-06-23T08:53:30.233Z,19.75
2018-06-23T08:54:30.227Z,19.85
2018-06-23T08:55:30.105Z,20.00
2018-06-23T08:56:30.105Z,20.18
2018-06-23T08:57:30.108Z,20.26
2018-06-23T08:58:29.986Z,20.39
2018-06-23T08:59:29.985Z,20.22
2018-06-23T09:00:29.992Z,20.27
2018-06-23T09:01:29.865Z,20.10
2018-06-23T09:02:29.865Z,20.10
2018-06-23T09:03:29.867Z,19.99
2018-06-23T09:04:29.757Z,19.87
2018-06-23T09:05:29.744Z,19.87
2018-06-23T09:06:29.746Z,19.85
2018-06-23T09:07:29.628Z,19.79
2018-06-23T09:08:29.624Z,19.57
2018-06-23T09:09:29.671Z,19.53
2018-06-23T09:10:29.506Z,19.59
2018-06-23T09:11:29.503Z,19.47
2018-06-23T09:12:29.503Z,19.35
2018-06-23T09:13:29.396Z,19.23
2018-06-23T09:14:29.382Z,19.22
2018-06-23T09:15:29.387Z,19.20
2018-06-23T09:16:29.262Z,19.08
2018-06-23T09:17:29.264Z,19.07
2018-06-23T09:18:29.262Z,18.91
2018-06-23T09:19:29.139Z,18.82
2018-06-23T09:20:29.141Z,18.82
2018-06-23T09:21:29.140Z,18.73
2018-06-23T09:22:29.021Z,18.68
2018-06-23T09:23:29.020Z,18.60
2018-06-23T09:24:29.019Z,18.57
2018-06-23T09:25:28.935Z,18.58
2018-06-23T09:26:28.899Z,18.45
2018-06-23T09:27:28.906Z,18.37
2018-06-23T09:28:28.784Z,18.37
2018-06-23T09:29:28.779Z,18.34
2018-06-23T09:30:28.780Z,18.39
2018-06-23T09:31:28.660Z,18.34
2018-06-23T09:32:28.656Z,18.30
2018-06-23T09:33:28.657Z,18.28
2018-06-23T09:34:28.595Z,18.19
2018-06-23T09:35:28.537Z,18.15
2018-06-23T09:36:28.537Z,18.21
2018-06-23T09:37:28.416Z,18.23
2018-06-23T09:38:28.421Z,18.16
2018-06-23T09:39:28.416Z,18.30
2018-06-23T09:40:28.297Z,18.30
2018-06-23T09:41:28.300Z,18.34
2018-06-23T09:42:28.297Z,18.28
2018-06-23T09:43:28.184Z,18.23
2018-06-23T09:44:28.174Z,18.26
2018-06-23T09:45:28.177Z,18.26
2018-06-23T09:46:28.053Z,18.34
2018-06-23T09:47:28.057Z,18.36
2018-06-23T09:48:28.054Z,18.41
2018-06-23T09:49:27.935Z,18.34
2018-06-23T09:50:27.931Z,18.33
2018-06-23T09:51:27.891Z,18.37
2018-06-23T09:52:27.813Z,18.26
2018-06-23T09:53:27.813Z,18.31
2018-06-23T09:54:27.695Z,18.21
2018-06-23T09:55:27.695Z,18.11
2018-06-23T09:56:27.692Z,18.09
2018-06-23T09:57:27.574Z,18.06
2018-06-23T09:58:27.572Z,18.02
2018-06-23T09:59:27.569Z,17.98
2018-06-23T10:00:27.454Z,17.91
2018-06-23T10:01:27.449Z,17.88
2018-06-23T10:02:27.451Z,17.91
2018-06-23T10:03:27.432Z,17.84
2018-06-23T10:04:27.332Z,17.84
2018-06-23T10:05:27.330Z,17.87
2018-06-23T10:06:27.212Z,17.86
2018-06-23T10:07:27.212Z,17.76
2018-06-23T10:08:27.346Z,17.75
2018-06-23T10:09:27.097Z,17.80
2018-06-23T10:10:27.092Z,17.78
2018-06-23T10:11:27.094Z,17.79
2018-06-23T10:12:26.968Z,17.78
2018-06-23T10:13:26.971Z,17.78
2018-06-23T10:14:26.968Z,17.76
2018-06-23T10:15:26.908Z,17.76
2018-06-23T10:16:26.850Z,17.76
2018-06-23T10:17:26.857Z,17.72
2018-06-23T10:18:26.728Z,17.76
2018-06-23T10:19:26.731Z,17.71
2018-06-23T10:20:26.726Z,17.75
2018-06-23T10:21:26.609Z,17.76
2018-06-23T10:22:26.611Z,17.75
2018-06-23T10:23:26.606Z,17.82
2018-06-23T10:24:26.493Z,17.82
2018-06-23T10:25:26.490Z,17.82
2018-06-23T10:26:26.493Z,17.97
2018-06-23T10:27:26.459Z,17.97
2018-06-23T10:28:26.364Z,17.98
2018-06-23T10:29:26.321Z,18.09
2018-06-23T10:30:26.245Z,18.09
2018-06-23T10:31:26.246Z,18.15
2018-06-23T10:32:26.128Z,18.23
2018-06-23T10:33:26.124Z,18.23
2018-06-23T10:34:26.122Z,18.26
2018-06-23T10:35:26.004Z,18.33
2018-06-23T10:36:26.003Z,18.43
2018-06-23T10:37:26.002Z,18.64
2018-06-23T10:38:25.893Z,18.70
2018-06-23T10:39:25.883Z,18.78
2018-06-23T10:40:25.882Z,18.83
2018-06-23T10:41:25.763Z,19.07
2018-06-23T10:42:25.762Z,19.24
2018-06-23T10:43:25.760Z,19.30
2018-06-23T10:44:25.639Z,19.32
2018-06-23T10:45:25.643Z,19.32
2018-06-23T10:46:25.696Z,19.42
2018-06-23T10:47:25.523Z,19.47
2018-06-23T10:48:25.518Z,19.49
2018-06-23T10:49:25.520Z,19.52
2018-06-23T10:50:25.399Z,19.48
2018-06-23T10:51:25.400Z,19.52
2018-06-23T10:52:25.398Z,19.48
2018-06-23T10:53:25.281Z,19.47
2018-06-23T10:54:25.282Z,19.47
2018-06-23T10:55:25.278Z,19.38
2018-06-23T10:56:25.157Z,19.35
2018-06-23T10:57:25.160Z,19.35
2018-06-23T10:58:25.161Z,19.32
2018-06-23T10:59:25.037Z,19.27
2018-06-23T11:00:25.037Z,19.19
2018-06-23T11:01:25.037Z,19.19
2018-06-23T11:02:24.917Z,19.26
2018-06-23T11:03:24.917Z,19.24
2018-06-23T11:04:24.924Z,19.30
2018-06-23T11:05:24.846Z,19.26
2018-06-23T11:06:24.798Z,19.19
2018-06-23T11:07:24.792Z,19.11
2018-06-23T11:08:24.677Z,19.20
2018-06-23T11:09:24.675Z,19.12
2018-06-23T11:10:24.674Z,19.08
2018-06-23T11:11:24.555Z,19.17
2018-06-23T11:12:24.554Z,19.08
2018-06-23T11:13:24.565Z,19.09
2018-06-23T11:14:24.434Z,19.08
2018-06-23T11:15:24.434Z,19.09
2018-06-23T11:16:24.433Z,19.19
2018-06-23T11:17:24.321Z,19.17
2018-06-23T11:18:24.313Z,19.24
2018-06-23T11:19:24.316Z,19.37
2018-06-23T11:20:24.194Z,19.39
2018-06-23T11:21:24.191Z,19.45
2018-06-23T11:22:24.193Z,19.49
2018-06-23T11:23:24.071Z,19.56
2018-06-23T11:24:24.082Z,19.75
2018-06-23T11:25:24.075Z,19.82
2018-06-23T11:26:23.956Z,19.79
2018-06-23T11:27:24.029Z,19.82
2018-06-23T11:28:23.951Z,19.85
2018-06-23T11:29:23.832Z,19.85
2018-06-23T11:30:23.829Z,19.93
2018-06-23T11:31:23.830Z,20.02
2018-06-23T11:32:23.713Z,19.99
2018-06-23T11:33:23.710Z,20.12
2018-06-23T11:34:23.711Z,20.21
2018-06-23T11:35:23.588Z,20.30
2018-06-23T11:36:23.589Z,20.22
2018-06-23T11:37:23.588Z,20.33
2018-06-23T11:38:23.473Z,20.34
2018-06-23T11:39:23.467Z,20.32
2018-06-23T11:40:23.467Z,20.30
2018-06-23T11:41:23.368Z,20.32
2018-06-23T11:42:23.348Z,20.32
2018-06-23T11:43:23.346Z,20.39
2018-06-23T11:44:23.227Z,20.42
2018-06-23T11:45:23.225Z,20.52
2018-06-23T11:46:23.228Z,20.60
2018-06-23T11:47:23.106Z,20.64
2018-06-23T11:48:23.104Z,20.70
2018-06-23T11:49:23.107Z,20.67
2018-06-23T11:50:22.989Z,20.75
2018-06-23T11:51:22.985Z,20.80
2018-06-23T11:52:23.073Z,20.88
2018-06-23T11:53:22.864Z,20.98
2018-06-23T11:54:22.869Z,21.01
2018-06-23T11:55:22.865Z,21.13
2018-06-23T11:56:22.743Z,21.15
2018-06-23T11:57:22.745Z,21.26
2018-06-23T11:58:22.744Z,21.30
2018-06-23T11:59:22.625Z,21.53
2018-06-23T12:00:22.622Z,21.66
2018-06-23T12:01:22.623Z,21.66
2018-06-23T12:02:22.501Z,21.66
2018-06-23T12:03:22.501Z,21.65
2018-06-23T12:04:22.500Z,21.62
2018-06-23T12:05:22.383Z,21.65
2018-06-23T12:06:22.382Z,21.72
2018-06-23T12:07:22.381Z,21.75
2018-06-23T12:08:22.261Z,21.80
2018-06-23T12:09:22.264Z,21.97
2018-06-23T12:10:22.261Z,22.04
2018-06-23T12:11:22.142Z,22.07
2018-06-23T12:12:22.139Z,22.23
2018-06-23T12:13:22.139Z,22.23
2018-06-23T12:14:22.097Z,22.25
2018-06-23T12:15:22.018Z,22.22
2018-06-23T12:16:22.020Z,22.26
2018-06-23T12:17:22.019Z,22.51
2018-06-23T12:18:21.900Z,22.71
2018-06-23T12:19:21.898Z,22.76
2018-06-23T12:20:21.900Z,22.93
2018-06-23T12:21:21.780Z,23.04
2018-06-23T12:22:21.776Z,23.14
2018-06-23T12:23:21.777Z,23.36
2018-06-23T12:24:21.660Z,23.07
2018-06-23T12:25:21.662Z,23.01
2018-06-23T12:26:21.659Z,22.76
2018-06-23T12:27:21.535Z,22.68
2018-06-23T12:28:21.536Z,22.55
2018-06-23T12:29:21.535Z,22.40
2018-06-23T12:30:21.441Z,22.30
2018-06-23T12:31:21.417Z,22.23
2018-06-23T12:32:21.423Z,22.10
2018-06-23T12:33:21.619Z,21.99
2018-06-23T12:34:21.337Z,21.89
2018-06-23T12:35:21.293Z,21.83
2018-06-23T12:36:21.174Z,21.83
2018-06-23T12:37:21.176Z,21.72
2018-06-23T12:38:21.175Z,21.68
2018-06-23T12:39:21.134Z,21.70
2018-06-23T12:40:21.253Z,21.65
2018-06-23T12:41:21.057Z,21.66
2018-06-23T12:42:21.055Z,21.56
2018-06-23T12:43:20.931Z,22.01
2018-06-23T12:44:20.930Z,22.93
2018-06-23T12:45:20.937Z,23.74
2018-06-23T12:46:20.812Z,24.37
2018-06-23T12:47:20.812Z,24.38
2018-06-23T12:48:21.042Z,25.09
2018-06-23T12:49:20.690Z,25.30
2018-06-23T12:50:20.694Z,25.03
2018-06-23T12:51:20.690Z,24.82
2018-06-23T12:52:20.570Z,24.51
2018-06-23T12:53:20.769Z,24.41